createdAt,value
2023-04-02T00:03:42.470Z,0.60
2023-04-02T00:08:45.542Z,0.57
2023-04-02T00:13:48.591Z,0.50
2023-04-02T00:18:56.405Z,0.50
2023-04-02T00:24:13.945Z,0.50
2023-04-02T00:29:18.310Z,0.80
2023-04-02T00:34:36.859Z,0.80
2023-04-02T00:39:43.054Z,0.60
2023-04-02T00:44:49.075Z,0.60
2023-04-02T00:50:18.590Z,0.60
2023-04-02T00:55:35.307Z,0.60
2023-04-02T01:00:38.566Z,0.50
2023-04-02T01:05:45.332Z,0.60
2023-04-02T01:11:20.015Z,0.77
2023-04-02T01:16:32.358Z,0.50
2023-04-02T01:22:03.770Z,0.60
2023-04-02T01:27:18.191Z,0.57
2023-04-02T01:32:23.331Z,0.70
2023-04-02T01:38:21.213Z,0.90
2023-04-02T01:43:57.768Z,0.67
2023-04-02T01:49:09.969Z,0.60
2023-04-02T01:54:17.152Z,0.60
2023-04-02T01:59:22.686Z,0.87
2023-04-02T02:04:26.009Z,0.90
2023-04-02T02:09:33.230Z,0.70
2023-04-02T02:14:36.903Z,0.90
2023-04-02T02:19:52.692Z,0.70
2023-04-02T02:25:03.062Z,0.80
2023-04-02T02:30:24.075Z,0.53
2023-04-02T02:35:52.939Z,0.80
2023-04-02T02:41:06.854Z,0.90
2023-04-02T02:46:17.396Z,0.80
2023-04-02T02:52:20.038Z,0.90
2023-04-02T02:57:30.961Z,1.00
2023-04-02T03:02:39.629Z,1.40
2023-04-02T03:07:42.804Z,0.80
2023-04-02T03:13:12.269Z,1.03
2023-04-02T03:18:22.998Z,1.10
2023-04-02T03:23:51.791Z,1.70
2023-04-02T03:29:23.698Z,1.60
2023-04-02T03:34:43.360Z,1.55
2023-04-02T03:40:03.141Z,1.50
2023-04-02T03:45:25.709Z,1.33
2023-04-02T03:50:28.639Z,1.40
2023-04-02T03:55:37.092Z,1.30
2023-04-02T04:01:08.600Z,1.10
2023-04-02T04:06:27.542Z,1.37
2023-04-02T04:11:49.880Z,1.17
2023-04-02T04:17:04.563Z,1.30
2023-04-02T04:22:33.784Z,1.10
2023-04-02T04:28:07.845Z,1.20
2023-04-02T04:33:23.189Z,1.10
2023-04-02T04:38:35.509Z,0.90
2023-04-02T04:43:54.826Z,0.93
2023-04-02T04:49:27.894Z,0.70
2023-04-02T04:54:31.044Z,0.80
2023-04-02T04:59:49.859Z,0.80
2023-04-02T05:04:53.498Z,0.70
2023-04-02T05:10:37.955Z,1.00
2023-04-02T05:16:01.999Z,1.00
2023-04-02T05:21:33.508Z,0.83
2023-04-02T05:26:47.420Z,1.00
2023-04-02T05:32:04.094Z,0.90
2023-04-02T05:37:13.748Z,1.00
2023-04-02T05:42:24.680Z,1.00
2023-04-02T05:47:31.609Z,0.82
2023-04-02T05:52:46.177Z,0.80
2023-04-02T05:58:17.739Z,0.87
2023-04-02T06:04:10.397Z,1.00
2023-04-02T06:09:36.035Z,0.90
2023-04-02T06:14:38.988Z,0.90
2023-04-02T06:19:42.309Z,0.90
2023-04-02T06:24:49.111Z,1.00
2023-04-02T06:29:58.184Z,0.80
2023-04-02T06:35:01.384Z,0.90
2023-04-02T06:40:14.433Z,1.20
2023-04-02T06:45:28.393Z,0.83
2023-04-02T06:50:41.646Z,0.80
2023-04-02T06:56:06.035Z,0.93
2023-04-02T07:01:19.847Z,1.20
2023-04-02T07:06:23.468Z,1.00
2023-04-02T07:11:26.317Z,1.10
2023-04-02T07:16:33.054Z,1.23
2023-04-02T07:21:35.993Z,1.00
2023-04-02T07:26:39.208Z,1.00
2023-04-02T07:31:42.620Z,0.98
2023-04-02T07:36:45.995Z,0.80
2023-04-02T07:42:01.606Z,1.00
2023-04-02T07:47:04.712Z,1.30
2023-04-02T07:52:07.845Z,0.80
2023-04-02T07:57:10.738Z,0.82
2023-04-02T08:02:22.759Z,1.00
2023-04-02T08:07:28.003Z,1.17
2023-04-02T08:12:31.326Z,1.33
2023-04-02T08:17:34.335Z,1.17
2023-04-02T08:22:37.444Z,1.30
2023-04-02T08:27:40.566Z,1.20
2023-04-02T08:32:43.915Z,1.20
2023-04-02T08:37:46.904Z,1.40
2023-04-02T08:43:25.000Z,1.10
2023-04-02T08:48:31.306Z,1.23
2023-04-02T08:53:39.195Z,1.15
2023-04-02T08:58:43.437Z,1.23
2023-04-02T09:03:49.786Z,1.20
2023-04-02T09:08:54.681Z,1.10
2023-04-02T09:14:01.773Z,1.20
2023-04-02T09:19:33.225Z,1.25
2023-04-02T09:29:45.563Z,1.42
2023-04-02T09:34:48.440Z,1.50
2023-04-02T09:39:51.986Z,1.30
2023-04-02T09:45:22.944Z,1.20
2023-04-02T09:50:34.273Z,1.30
2023-04-02T09:55:37.785Z,1.38
2023-04-02T10:00:54.090Z,1.45
2023-04-02T10:06:15.913Z,1.55
2023-04-02T10:11:46.390Z,1.40
2023-04-02T10:16:58.394Z,1.67
2023-04-02T10:22:12.273Z,1.38
2023-04-02T10:27:44.768Z,1.30
2023-04-02T10:33:08.564Z,1.75
2023-04-02T10:38:19.263Z,1.70
2023-04-02T10:43:49.213Z,1.58
2023-04-02T10:49:13.597Z,1.40
2023-04-02T10:55:00.076Z,1.73
2023-04-02T11:00:12.997Z,1.35
2023-04-02T11:05:43.935Z,1.42
2023-04-02T11:11:15.072Z,1.30
2023-04-02T11:16:18.710Z,1.13
2023-04-02T11:22:00.986Z,1.00
2023-04-02T11:27:33.967Z,1.00
2023-04-02T11:32:43.098Z,1.02
2023-04-02T11:37:48.723Z,1.07
2023-04-02T11:42:52.856Z,0.80
2023-04-02T11:48:02.325Z,0.60
2023-04-02T11:53:41.019Z,1.00
2023-04-02T11:58:59.410Z,1.00
2023-04-02T12:04:33.134Z,0.85
2023-04-02T12:10:00.847Z,1.10
2023-04-02T12:15:27.237Z,1.00
2023-04-02T12:20:31.488Z,0.90
2023-04-02T12:25:40.929Z,1.00
2023-04-02T12:30:46.043Z,1.30
2023-04-02T12:35:57.924Z,1.30
2023-04-02T12:41:05.138Z,0.95
2023-04-02T12:46:09.507Z,1.10
2023-04-02T12:51:12.694Z,0.95
2023-04-02T12:56:22.003Z,0.50
2023-04-02T13:01:28.358Z,1.00
2023-04-02T13:06:33.169Z,0.50
2023-04-02T13:11:41.649Z,0.52
2023-04-02T13:16:44.750Z,0.80
2023-04-02T13:21:47.922Z,0.60
2023-04-02T13:26:55.031Z,0.50
2023-04-02T13:32:05.531Z,0.57
2023-04-02T13:37:12.791Z,0.40
2023-04-02T13:42:17.978Z,2.55
2023-04-02T13:47:21.589Z,0.77
2023-04-02T13:52:24.652Z,0.57
2023-04-02T13:57:27.501Z,0.57
2023-04-02T14:02:30.837Z,0.60
2023-04-02T14:08:09.019Z,0.52
2023-04-02T14:13:26.880Z,1.20
2023-04-02T14:19:05.042Z,1.08
2023-04-02T14:24:38.820Z,1.35
2023-04-02T14:30:09.613Z,1.20
2023-04-02T14:35:45.625Z,0.90
2023-04-02T14:40:56.671Z,1.60
2023-04-02T14:46:02.171Z,3.65
2023-04-02T14:51:34.715Z,4.47
2023-04-02T14:56:59.322Z,2.37
2023-04-02T15:02:14.524Z,3.27
2023-04-02T15:07:25.972Z,4.47
2023-04-02T15:12:37.226Z,6.22
2023-04-02T15:22:55.353Z,5.73
2023-04-02T15:27:58.390Z,8.70
2023-04-02T15:33:28.380Z,7.47
2023-04-02T15:38:53.411Z,6.90
2023-04-02T15:44:08.190Z,3.97
2023-04-02T15:49:46.740Z,2.33
2023-04-02T15:55:20.902Z,4.37
2023-04-02T16:01:09.141Z,5.78
2023-04-02T16:06:55.497Z,2.30
2023-04-02T16:12:31.223Z,4.50
2023-04-02T16:17:43.772Z,3.10
2023-04-02T16:23:00.561Z,3.08
2023-04-02T16:28:31.177Z,4.68
2023-04-02T16:33:52.034Z,2.90
2023-04-02T16:39:33.198Z,2.47
2023-04-02T16:45:02.088Z,1.80
2023-04-02T16:50:29.674Z,1.57
2023-04-02T16:56:12.411Z,0.83
2023-04-02T17:01:38.021Z,2.10
2023-04-02T17:06:55.908Z,0.70
2023-04-02T17:12:13.264Z,0.90
2023-04-02T17:17:17.368Z,0.70
2023-04-02T17:22:22.715Z,1.67
2023-04-02T17:27:43.888Z,1.20
2023-04-02T17:32:46.846Z,0.98
2023-04-02T17:38:25.499Z,1.00
2023-04-02T17:43:52.509Z,4.93
2023-04-02T17:49:37.498Z,1.70
2023-04-02T17:55:43.234Z,1.80
2023-04-02T18:01:09.581Z,1.80
2023-04-02T18:06:35.342Z,1.77
2023-04-02T18:11:41.042Z,1.73
2023-04-02T18:16:47.021Z,1.87
2023-04-02T18:22:02.316Z,5.27
2023-04-02T18:27:34.975Z,9.30
2023-04-02T18:33:09.006Z,2.53
2023-04-02T18:38:29.529Z,3.27
2023-04-02T18:43:46.675Z,2.40
2023-04-02T18:49:34.973Z,2.80
2023-04-02T18:55:30.425Z,7.73
2023-04-02T19:00:40.173Z,2.00
2023-04-02T19:05:54.852Z,2.43
2023-04-02T19:11:19.378Z,2.07
2023-04-02T19:17:07.692Z,1.87
2023-04-02T19:22:44.761Z,2.27
2023-04-02T19:28:08.100Z,2.53
2023-04-02T19:33:22.954Z,2.33
2023-04-02T19:38:48.485Z,2.07
2023-04-02T19:43:51.598Z,1.70
2023-04-02T19:49:22.757Z,1.80
2023-04-02T19:54:26.151Z,1.70
2023-04-02T19:59:28.965Z,2.40
2023-04-02T20:04:32.014Z,1.70
2023-04-02T20:09:35.038Z,1.57
2023-04-02T20:14:37.951Z,1.40
2023-04-02T20:19:40.846Z,1.40
2023-04-02T20:24:43.865Z,1.60
2023-04-02T20:29:48.366Z,1.30
2023-04-02T20:34:51.494Z,1.40
2023-04-02T20:39:56.586Z,1.50
2023-04-02T20:44:59.712Z,1.60
2023-04-02T20:50:02.938Z,1.50
2023-04-02T20:55:06.836Z,1.70
2023-04-02T21:00:11.968Z,1.90
2023-04-02T21:05:15.013Z,2.00
2023-04-02T21:10:18.272Z,1.63
2023-04-02T21:15:21.277Z,1.50
2023-04-02T21:20:26.674Z,1.73
2023-04-02T21:25:29.619Z,1.50
2023-04-02T21:30:33.239Z,1.67
2023-04-02T21:35:36.454Z,1.73
2023-04-02T21:40:39.990Z,1.93
2023-04-02T21:45:42.979Z,2.17
2023-04-02T21:50:46.431Z,2.30
2023-04-02T21:55:49.218Z,2.20
2023-04-02T22:00:52.110Z,2.80
2023-04-02T22:06:22.897Z,2.47
2023-04-02T22:11:37.054Z,2.33
2023-04-02T22:16:40.670Z,2.20
2023-04-02T22:21:44.908Z,2.30
2023-04-02T22:26:48.661Z,2.80
2023-04-02T22:31:51.630Z,2.27
2023-04-02T22:36:54.594Z,2.57
2023-04-02T22:41:57.619Z,2.60
2023-04-02T22:47:00.714Z,2.70
2023-04-02T22:52:06.117Z,3.00
2023-04-02T22:57:09.120Z,2.77
2023-04-02T23:02:12.123Z,2.63
2023-04-02T23:07:15.024Z,2.77
2023-04-02T23:12:17.917Z,3.00
2023-04-02T23:17:20.902Z,3.10
2023-04-02T23:22:24.369Z,3.40
2023-04-02T23:27:27.335Z,3.10
2023-04-02T23:32:30.356Z,3.07
2023-04-02T23:37:33.292Z,2.97
2023-04-02T23:42:36.316Z,2.97
2023-04-02T23:47:39.235Z,2.90
2023-04-02T23:52:42.227Z,3.53
2023-04-02T23:57:45.401Z,3.27
